Time;durP1;ratioP1;P1;durP2;ratioP2;P2;SDS_P1;SDS_P2;PMS_P1;PMS_P2;Temp;Humidity;BMP_temperature;BMP_pressure;BME280_temperature;BME280_humidity;BME280_pressure;Samples;Min_cycle;Max_cycle;Signal;HPM_P1;HPM_P2
2022/07/16 00:03:06;;;;;;;5.30;2.40;;;;;19.10;97529.80;;;;111180;1246;41346;-72
2022/07/16 00:05:35;;;;;;;9.70;3.10;;;;;19.12;97524.20;;;;110871;1247;41421;-74
2022/07/16 00:08:05;;;;;;;7.80;3.40;;;;;19.02;97526.60;;;;111008;1247;41606;-72
2022/07/16 00:10:35;;;;;;;10.40;3.60;;;;;19.00;97531.00;;;;111244;1247;41217;-74
2022/07/16 00:13:06;;;;;;;8.40;3.10;;;;;18.92;97527.60;;;;111207;1246;41140;-74
2022/07/16 00:15:36;;;;;;;8.70;2.70;;;;;18.90;97529.40;;;;111213;1247;42130;-72
2022/07/16 00:20:53;;;;;;;6.30;2.60;;;;;19.00;97532.00;;;;111211;1247;42109;-73
2022/07/16 00:23:22;;;;;;;5.80;2.30;;;;;19.00;97533.20;;;;111401;1247;41694;-72
2022/07/16 00:25:51;;;;;;;4.90;2.10;;;;;18.90;97527.00;;;;111241;1247;41130;-72
2022/07/16 00:28:21;;;;;;;7.90;2.40;;;;;18.90;97527.00;;;;111186;1247;40861;-71
2022/07/16 00:30:50;;;;;;;8.60;2.40;;;;;18.90;97525.60;;;;111177;1246;41550;-72
2022/07/16 00:33:20;;;;;;;8.50;2.40;;;;;18.84;97529.20;;;;111077;1248;41182;-72
2022/07/16 00:35:51;;;;;;;10.40;2.50;;;;;18.80;97538.20;;;;111184;1247;41623;-73
2022/07/16 00:38:20;;;;;;;8.00;2.60;;;;;18.80;97538.00;;;;110966;1248;41152;-72
2022/07/16 00:40:50;;;;;;;6.20;2.50;;;;;18.70;97540.80;;;;111197;1246;41488;-73
2022/07/16 00:43:19;;;;;;;6.00;2.50;;;;;18.64;97540.00;;;;111301;1244;41146;-73
2022/07/16 00:45:50;;;;;;;5.00;2.50;;;;;18.60;97539.40;;;;110852;1247;41198;-73
2022/07/16 00:48:20;;;;;;;6.70;2.70;;;;;18.60;97536.80;;;;111165;1247;41637;-74
2022/07/16 00:50:49;;;;;;;7.50;2.70;;;;;18.50;97533.80;;;;110910;1247;41133;-74
2022/07/16 00:53:19;;;;;;;7.70;2.90;;;;;18.40;97535.60;;;;111267;1245;41120;-73
2022/07/16 00:55:49;;;;;;;7.50;2.60;;;;;18.40;97536.80;;;;111093;1248;41163;-73
2022/07/16 00:58:19;;;;;;;7.30;2.90;;;;;18.30;97533.60;;;;111142;1247;41148;-73
2022/07/16 01:00:49;;;;;;;7.30;2.80;;;;;18.22;97533.60;;;;111390;1246;41246;-72
2022/07/16 01:03:19;;;;;;;9.70;3.60;;;;;18.20;97532.00;;;;111297;1247;41717;-73
2022/07/16 01:05:48;;;;;;;8.00;3.70;;;;;18.10;97531.40;;;;111213;1247;41980;-73
2022/07/16 01:08:21;;;;;;;12.10;3.80;;;;;18.00;97532.60;;;;111201;1247;42347;-74
2022/07/16 01:10:51;;;;;;;13.40;4.50;;;;;17.90;97537.00;;;;111161;1247;41142;-73
2022/07/16 01:13:22;;;;;;;11.70;3.90;;;;;17.80;97535.60;;;;111247;1245;41689;-74
2022/07/16 01:15:53;;;;;;;7.90;3.60;;;;;17.74;97533.60;;;;111260;1247;41256;-72
2022/07/16 01:18:23;;;;;;;8.60;3.70;;;;;17.70;97533.60;;;;111207;1246;41354;-75
2022/07/16 01:20:53;;;;;;;9.10;3.30;;;;;17.60;97529.40;;;;111136;1248;42232;-74
2022/07/16 01:23:24;;;;;;;9.00;3.30;;;;;17.60;97531.20;;;;111303;1247;41270;-73
2022/07/16 01:25:54;;;;;;;8.30;3.30;;;;;17.60;97526.40;;;;111294;1244;41185;-72
2022/07/16 01:28:24;;;;;;;8.10;3.20;;;;;17.60;97526.60;;;;111157;1247;41187;-73
2022/07/16 01:30:54;;;;;;;10.70;3.90;;;;;17.60;97521.00;;;;111295;1246;41358;-72
2022/07/16 01:33:33;;;;;;;8.90;3.60;;;;;17.50;97513.20;;;;111173;1247;41218;-72
2022/07/16 01:36:06;;;;;;;8.70;3.30;;;;;17.50;97514.40;;;;110938;1248;41148;-73
2022/07/16 01:38:42;;;;;;;9.00;3.70;;;;;17.46;97514.60;;;;111078;1248;41193;-74
2022/07/16 01:41:14;;;;;;;8.80;3.60;;;;;17.40;97521.00;;;;111194;1247;41156;-75
2022/07/16 01:43:44;;;;;;;8.40;3.00;;;;;17.40;97526.20;;;;110885;1248;41256;-74
2022/07/16 01:46:16;;;;;;;10.20;3.00;;;;;17.40;97527.60;;;;111225;1247;41143;-77
2022/07/16 01:48:45;;;;;;;8.20;3.10;;;;;17.30;97520.40;;;;111272;1247;42108;-74
2022/07/16 01:51:16;;;;;;;8.60;3.20;;;;;17.20;97520.40;;;;111396;1246;41120;-73
2022/07/16 01:53:47;;;;;;;6.70;2.70;;;;;17.20;97518.60;;;;111240;1247;41721;-74
2022/07/16 01:56:19;;;;;;;6.30;2.80;;;;;17.10;97508.60;;;;111286;1246;41127;-73
2022/07/16 01:58:49;;;;;;;8.50;3.00;;;;;17.10;97509.20;;;;111243;1247;41202;-73
2022/07/16 02:01:19;;;;;;;6.50;2.40;;;;;17.10;97508.80;;;;111286;1247;41133;-75
2022/07/16 02:03:50;;;;;;;7.50;2.70;;;;;17.10;97501.40;;;;111054;1248;41184;-74
2022/07/16 02:06:21;;;;;;;7.20;2.70;;;;;17.10;97499.00;;;;111306;1247;41121;-74
2022/07/16 02:08:50;;;;;;;6.10;2.40;;;;;17.10;97500.80;;;;111268;1244;41845;-75
2022/07/16 02:11:20;;;;;;;6.10;2.60;;;;;17.10;97505.00;;;;111140;1249;41416;-74
2022/07/16 02:13:50;;;;;;;6.20;2.50;;;;;17.10;97513.00;;;;111222;1247;41271;-74
2022/07/16 02:16:20;;;;;;;6.00;2.30;;;;;17.10;97510.00;;;;111268;1245;42117;-74
2022/07/16 02:18:51;;;;;;;6.00;2.60;;;;;17.12;97502.40;;;;111245;1247;41171;-75
2022/07/16 02:21:21;;;;;;;5.80;2.40;;;;;17.18;97495.00;;;;111433;1245;41172;-74
2022/07/16 02:23:53;;;;;;;5.10;2.20;;;;;17.20;97493.80;;;;111161;1248;41553;-75
2022/07/16 02:26:25;;;;;;;7.30;2.20;;;;;17.20;97493.20;;;;111204;1247;40892;-73
2022/07/16 02:28:56;;;;;;;;;;;;;17.20;97494.60;;;;111089;1247;41256;-74
2022/07/16 02:31:40;;;;;;;5.40;2.20;;;;;17.20;97494.00;;;;111266;1247;41509;-74
2022/07/16 02:34:11;;;;;;;6.00;2.30;;;;;17.20;97496.80;;;;111252;1244;41480;-74
2022/07/16 02:36:42;;;;;;;6.00;2.30;;;;;17.20;97501.00;;;;111212;1244;41175;-73
2022/07/16 02:39:13;;;;;;;8.20;3.50;;;;;17.20;97502.20;;;;111451;1245;41132;-73
2022/07/16 02:41:43;;;;;;;7.40;3.20;;;;;17.20;97499.80;;;;111220;1246;41254;-74
2022/07/16 02:44:12;;;;;;;8.40;3.10;;;;;17.20;97496.40;;;;111210;1247;41206;-75
2022/07/16 02:46:42;;;;;;;7.50;2.70;;;;;17.20;97494.20;;;;111184;1248;41126;-74
2022/07/16 02:49:12;;;;;;;8.00;2.90;;;;;17.20;97499.00;;;;111269;1247;41503;-74
2022/07/16 02:51:42;;;;;;;5.20;2.30;;;;;17.16;97497.40;;;;110982;1247;41499;-75
2022/07/16 02:54:12;;;;;;;6.30;2.40;;;;;17.10;97495.00;;;;111209;1246;41163;-74
2022/07/16 02:56:42;;;;;;;5.30;2.20;;;;;17.10;97491.40;;;;111205;1247;41286;-75
2022/07/16 02:59:12;;;;;;;4.10;2.00;;;;;17.10;97489.80;;;;111202;1247;41609;-75
2022/07/16 03:01:42;;;;;;;5.60;2.20;;;;;17.10;97488.20;;;;111229;1247;41285;-74
2022/07/16 03:04:13;;;;;;;;;;;;;17.10;97483.60;;;;111240;1244;41265;-75
2022/07/16 03:06:43;;;;;;;6.20;2.20;;;;;17.10;97482.00;;;;111097;1249;42383;-76
2022/07/16 03:09:12;;;;;;;6.40;2.60;;;;;17.10;97479.00;;;;111179;1248;41252;-75
2022/07/16 03:11:41;;;;;;;5.80;2.30;;;;;17.10;97481.20;;;;111181;1246;41175;-75
2022/07/16 03:14:11;;;;;;;6.00;2.50;;;;;17.10;97483.60;;;;110924;1247;41583;-76
2022/07/16 03:16:40;;;;;;;5.00;2.20;;;;;17.10;97489.00;;;;111241;1247;41746;-74
2022/07/16 03:19:10;;;;;;;5.50;2.40;;;;;17.10;97488.40;;;;111280;1247;42048;-74
2022/07/16 03:21:41;;;;;;;6.50;2.30;;;;;17.10;97488.60;;;;111356;1247;41264;-77
2022/07/16 03:24:10;;;;;;;4.90;2.20;;;;;17.10;97488.40;;;;111261;1247;41225;-76
2022/07/16 03:26:41;;;;;;;;;;;;;17.10;97491.60;;;;111330;1247;41157;-74
2022/07/16 03:29:11;;;;;;;4.20;2.00;;;;;17.10;97493.20;;;;111359;1246;42059;-74
2022/07/16 03:31:41;;;;;;;6.90;2.40;;;;;17.10;97488.60;;;;111237;1247;41748;-75
2022/07/16 03:34:11;;;;;;;5.60;2.40;;;;;17.18;97486.60;;;;111272;1247;42324;-74
2022/07/16 03:36:42;;;;;;;6.20;2.40;;;;;17.20;97485.40;;;;111185;1247;41256;-75
2022/07/16 03:39:13;;;;;;;5.50;2.50;;;;;17.18;97483.40;;;;111320;1247;41365;-75
2022/07/16 03:41:43;;;;;;;7.00;2.70;;;;;17.14;97488.40;;;;111251;1244;41510;-75
2022/07/16 03:44:13;;;;;;;5.80;2.40;;;;;17.10;97487.60;;;;111204;1244;41370;-73
2022/07/16 03:46:43;;;;;;;7.70;2.60;;;;;17.12;97487.40;;;;111315;1245;41127;-74
2022/07/16 03:49:13;;;;;;;6.60;2.30;;;;;17.12;97491.00;;;;111014;1247;41175;-74
2022/07/16 03:51:43;;;;;;;5.80;2.30;;;;;17.20;97493.60;;;;111175;1250;41922;-74
2022/07/16 03:54:13;;;;;;;7.70;2.80;;;;;17.18;97489.40;;;;111256;1247;41584;-75
2022/07/16 03:56:43;;;;;;;8.50;3.10;;;;;17.18;97487.80;;;;111210;1247;41702;-73
2022/07/16 03:59:13;;;;;;;9.90;3.90;;;;;17.12;97492.20;;;;111375;1247;41124;-74
2022/07/16 04:01:42;;;;;;;7.70;2.70;;;;;17.10;97499.60;;;;111196;1247;42085;-74
2022/07/16 04:04:12;;;;;;;6.90;2.40;;;;;17.10;97499.00;;;;111272;1245;41144;-73
2022/07/16 04:06:42;;;;;;;9.10;2.90;;;;;17.08;97493.60;;;;111204;1247;41987;-75
2022/07/16 04:09:12;;;;;;;5.80;2.60;;;;;17.10;97494.80;;;;111328;1246;41144;-74
2022/07/16 04:11:41;;;;;;;8.10;2.50;;;;;17.10;97498.80;;;;111427;1247;41613;-74
2022/07/16 04:14:11;;;;;;;9.50;2.80;;;;;17.10;97497.40;;;;111146;1248;41152;-75
2022/07/16 04:16:41;;;;;;;4.90;2.20;;;;;17.20;97499.40;;;;111213;1246;41149;-75
2022/07/16 04:19:12;;;;;;;6.00;2.20;;;;;17.26;97494.20;;;;111401;1244;41288;-74
2022/07/16 04:21:42;;;;;;;6.60;2.50;;;;;17.40;97492.00;;;;111238;1247;41508;-74
2022/07/16 04:24:11;;;;;;;7.40;2.70;;;;;17.68;97498.00;;;;111212;1247;41142;-74
2022/07/16 04:26:41;;;;;;;7.30;2.90;;;;;18.14;97497.00;;;;111271;1247;42339;-75
2022/07/16 04:29:10;;;;;;;8.70;2.90;;;;;18.70;97497.40;;;;111372;1245;42628;-74
2022/07/16 04:31:39;;;;;;;7.00;3.10;;;;;19.26;97492.60;;;;111172;1247;41260;-75
2022/07/16 04:34:09;;;;;;;10.00;3.70;;;;;19.82;97481.20;;;;111134;1247;41136;-74
2022/07/16 04:36:38;;;;;;;8.50;3.30;;;;;20.38;97480.80;;;;111214;1247;41261;-73
2022/07/16 04:39:07;;;;;;;6.50;3.00;;;;;20.92;97479.40;;;;111205;1248;41272;-74
2022/07/16 04:41:37;;;;;;;8.30;3.10;;;;;21.46;97478.80;;;;111217;1247;42147;-74
2022/07/16 04:44:06;;;;;;;11.20;3.30;;;;;21.90;97475.40;;;;111396;1244;41137;-75
2022/07/16 04:46:35;;;;;;;7.20;3.20;;;;;22.28;97476.60;;;;111445;1246;41145;-75
2022/07/16 04:49:05;;;;;;;9.30;3.30;;;;;22.40;97477.40;;;;111237;1247;41989;-74
2022/07/16 04:51:35;;;;;;;14.00;3.50;;;;;22.70;97482.00;;;;111199;1247;41717;-74
2022/07/16 04:54:04;;;;;;;7.50;3.20;;;;;23.14;97476.80;;;;111197;1247;41145;-75
2022/07/16 04:56:33;;;;;;;10.40;3.60;;;;;23.58;97474.20;;;;111170;1247;41742;-74
2022/07/16 04:59:02;;;;;;;10.20;3.30;;;;;24.10;97463.60;;;;111345;1246;41152;-74
2022/07/16 05:01:32;;;;;;;8.10;2.90;;;;;24.52;97455.00;;;;111263;1247;41152;-75
2022/07/16 05:04:01;;;;;;;7.30;2.90;;;;;25.08;97439.60;;;;111282;1244;42121;-73
2022/07/16 05:06:30;;;;;;;6.10;2.40;;;;;25.42;97449.20;;;;111320;1245;41182;-74
2022/07/16 05:09:01;;;;;;;7.20;2.60;;;;;26.00;97445.00;;;;111339;1245;41751;-74
2022/07/16 05:11:30;;;;;;;9.70;3.00;;;;;26.50;97450.20;;;;111229;1247;42263;-74
2022/07/16 05:14:00;;;;;;;6.40;2.60;;;;;26.82;97452.20;;;;111180;1246;41152;-74
2022/07/16 05:16:29;;;;;;;6.90;2.40;;;;;26.82;97448.40;;;;111180;1248;41255;-75
2022/07/16 05:18:58;;;;;;;5.90;2.20;;;;;27.10;97454.80;;;;111188;1247;41708;-74
2022/07/16 05:21:27;;;;;;;6.10;2.40;;;;;27.60;97448.60;;;;111347;1244;40895;-76
2022/07/16 05:23:56;;;;;;;5.70;2.10;;;;;27.72;97446.20;;;;111203;1248;41149;-74
2022/07/16 05:26:25;;;;;;;6.00;2.40;;;;;28.00;97452.20;;;;111088;1247;41115;-76
2022/07/16 05:28:54;;;;;;;6.30;2.30;;;;;28.30;97456.40;;;;111434;1245;41676;-75
2022/07/16 05:31:23;;;;;;;7.50;2.50;;;;;28.46;97451.40;;;;111268;1247;41143;-74
2022/07/16 05:33:52;;;;;;;6.40;2.40;;;;;28.52;97451.40;;;;111215;1245;41815;-74
2022/07/16 05:36:21;;;;;;;6.30;2.20;;;;;28.26;97456.20;;;;111580;1244;42216;-74
2022/07/16 05:38:52;;;;;;;7.50;2.70;;;;;27.80;97472.00;;;;111191;1247;41508;-74
2022/07/16 05:41:21;;;;;;;6.00;2.40;;;;;26.50;97484.20;;;;111332;1247;41242;-74
2022/07/16 05:43:50;;;;;;;6.60;2.30;;;;;25.84;97493.40;;;;111183;1248;41135;-74
2022/07/16 05:46:19;;;;;;;4.60;2.10;;;;;25.52;97496.00;;;;111324;1245;40965;-74
2022/07/16 05:48:49;;;;;;;5.00;2.00;;;;;25.20;97503.80;;;;111170;1247;41262;-74
2022/07/16 05:51:19;;;;;;;6.00;2.40;;;;;25.16;97502.40;;;;111244;1246;41380;-75
2022/07/16 05:53:48;;;;;;;5.40;2.20;;;;;25.22;97500.60;;;;111475;1246;41704;-73
2022/07/16 05:56:18;;;;;;;5.90;2.30;;;;;25.68;97503.20;;;;111488;1245;41614;-75
2022/07/16 05:58:47;;;;;;;6.10;2.50;;;;;26.36;97500.80;;;;111233;1246;41307;-75
2022/07/16 06:01:17;;;;;;;6.30;2.40;;;;;27.10;97496.40;;;;111202;1246;41749;-74
2022/07/16 06:03:46;;;;;;;7.60;2.60;;;;;27.62;97490.60;;;;111213;1248;42529;-73
2022/07/16 06:06:15;;;;;;;8.10;2.80;;;;;28.20;97494.40;;;;111162;1247;41174;-73
2022/07/16 06:08:43;;;;;;;5.70;2.10;;;;;28.20;97497.60;;;;111292;1247;41133;-74
2022/07/16 06:11:12;;;;;;;5.90;2.40;;;;;28.30;97491.40;;;;111308;1246;41181;-75
2022/07/16 06:13:44;;;;;;;6.80;2.60;;;;;28.70;97489.40;;;;111223;1247;41911;-74
2022/07/16 06:16:13;;;;;;;7.90;2.80;;;;;28.88;97491.40;;;;111226;1247;41163;-74
2022/07/16 06:18:42;;;;;;;9.10;2.90;;;;;28.92;97487.40;;;;111279;1246;40844;-74
2022/07/16 06:21:11;;;;;;;6.20;2.50;;;;;29.28;97476.20;;;;111258;1247;41544;-74
2022/07/16 06:23:40;;;;;;;7.80;2.80;;;;;29.50;97470.00;;;;111311;1245;41520;-73
2022/07/16 06:26:09;;;;;;;7.40;3.00;;;;;29.80;97470.40;;;;111277;1247;41159;-74
2022/07/16 06:28:38;;;;;;;6.10;2.50;;;;;29.50;97470.00;;;;111314;1245;41186;-75
2022/07/16 06:31:08;;;;;;;7.00;2.60;;;;;29.58;97466.00;;;;111209;1247;41490;-74
2022/07/16 06:33:37;;;;;;;7.20;2.50;;;;;30.10;97464.00;;;;111150;1248;41896;-74
2022/07/16 06:36:06;;;;;;;7.80;2.60;;;;;30.54;97458.60;;;;111200;1247;41143;-74
2022/07/16 06:38:35;;;;;;;7.80;2.60;;;;;30.40;97462.40;;;;111182;1248;41154;-74
2022/07/16 06:41:04;;;;;;;6.60;2.80;;;;;30.74;97466.80;;;;111140;1249;41533;-74
2022/07/16 06:43:33;;;;;;;6.80;2.40;;;;;31.02;97473.20;;;;111155;1248;41251;-74
2022/07/16 06:46:02;;;;;;;6.50;2.50;;;;;31.00;97473.80;;;;111180;1247;41412;-75
2022/07/16 06:48:31;;;;;;;6.80;2.50;;;;;30.80;97477.40;;;;111179;1247;41168;-74
2022/07/16 06:51:00;;;;;;;6.60;2.10;;;;;31.04;97475.80;;;;111111;1249;41146;-75
2022/07/16 06:53:29;;;;;;;5.70;2.20;;;;;31.34;97472.00;;;;111194;1248;41601;-75
2022/07/16 06:56:00;;;;;;;4.40;1.90;;;;;31.06;97472.00;;;;111198;1248;41267;-74
2022/07/16 06:58:29;;;;;;;5.20;2.00;;;;;31.00;97472.20;;;;111194;1247;41139;-75
2022/07/16 07:00:59;;;;;;;4.30;1.80;;;;;31.34;97476.80;;;;111357;1247;41367;-75
2022/07/16 07:03:29;;;;;;;4.10;1.90;;;;;31.58;97474.60;;;;111238;1247;41506;-74
2022/07/16 07:05:58;;;;;;;6.90;2.50;;;;;31.40;97478.40;;;;111244;1247;41171;-73
2022/07/16 07:08:27;;;;;;;4.40;1.80;;;;;30.90;97480.00;;;;111251;1245;41465;-74
2022/07/16 07:10:56;;;;;;;7.90;2.20;;;;;31.06;97475.40;;;;111155;1247;42202;-74
2022/07/16 07:13:30;;;;;;;7.20;2.10;;;;;30.38;97480.40;;;;111174;1248;41365;-75
2022/07/16 07:15:59;;;;;;;4.80;1.90;;;;;29.40;97486.20;;;;111184;1247;41151;-74
2022/07/16 07:18:28;;;;;;;4.40;1.90;;;;;29.16;97477.60;;;;111531;1247;41728;-74
2022/07/16 07:20:59;;;;;;;5.50;2.30;;;;;28.58;97484.40;;;;111229;1247;41170;-76
2022/07/16 07:23:29;;;;;;;7.50;2.50;;;;;28.16;97491.00;;;;111424;1247;41249;-73
2022/07/16 07:25:58;;;;;;;7.40;2.30;;;;;27.60;97500.40;;;;111158;1248;41941;-74
2022/07/16 07:28:28;;;;;;;4.70;2.10;;;;;27.38;97502.80;;;;111540;1246;41289;-74
2022/07/16 07:30:57;;;;;;;5.10;2.00;;;;;27.16;97501.80;;;;111551;1247;41196;-76
2022/07/16 07:33:26;;;;;;;5.60;2.30;;;;;26.82;97507.80;;;;111206;1247;41149;-72
2022/07/16 07:35:56;;;;;;;8.10;2.50;;;;;26.90;97505.40;;;;110988;1248;41256;-74
2022/07/16 07:38:25;;;;;;;5.60;2.00;;;;;26.88;97504.20;;;;111248;1247;41135;-73
2022/07/16 07:40:54;;;;;;;7.10;2.40;;;;;26.80;97503.20;;;;111346;1247;41704;-73
2022/07/16 07:43:23;;;;;;;5.40;2.10;;;;;26.50;97513.80;;;;110871;1247;387450;-73
2022/07/16 07:45:52;;;;;;;6.10;2.20;;;;;26.50;97519.00;;;;111224;1247;41167;-73
2022/07/16 07:48:22;;;;;;;5.70;1.70;;;;;26.70;97518.40;;;;111231;1247;40729;-73
2022/07/16 07:50:51;;;;;;;7.70;2.20;;;;;26.44;97510.60;;;;111463;1246;41264;-74
2022/07/16 07:53:20;;;;;;;4.10;1.80;;;;;26.40;97514.60;;;;111123;1248;41545;-74
2022/07/16 07:55:49;;;;;;;8.10;2.40;;;;;26.10;97517.20;;;;111217;1247;41861;-74
2022/07/16 07:58:19;;;;;;;6.30;2.20;;;;;26.20;97509.20;;;;111153;1247;41147;-73
2022/07/16 08:00:48;;;;;;;6.40;2.20;;;;;26.30;97516.20;;;;111333;1246;41295;-74
2022/07/16 08:03:35;;;;;;;5.20;2.10;;;;;26.36;97507.00;;;;111300;1247;41276;-73
2022/07/16 08:06:04;;;;;;;5.50;2.10;;;;;26.50;97510.20;;;;111201;1248;41708;-73
2022/07/16 08:08:33;;;;;;;5.30;2.00;;;;;26.70;97508.80;;;;111566;1247;41293;-73
2022/07/16 08:11:02;;;;;;;6.00;2.40;;;;;27.20;97506.60;;;;111276;1248;41902;-73
2022/07/16 08:13:31;;;;;;;6.40;2.60;;;;;27.50;97504.40;;;;111547;1247;41161;-73
2022/07/16 08:16:00;;;;;;;5.90;2.30;;;;;27.40;97510.60;;;;111229;1247;41165;-73
2022/07/16 08:18:29;;;;;;;5.20;2.30;;;;;27.40;97511.80;;;;111553;1247;41464;-73
2022/07/16 08:20:58;;;;;;;6.80;2.30;;;;;27.20;97513.60;;;;111502;1247;42042;-73
2022/07/16 08:26:15;;;;;;;4.90;2.00;;;;;27.44;97527.00;;;;111282;1247;40987;-74
2022/07/16 08:28:44;;;;;;;8.30;2.20;;;;;27.60;97522.80;;;;111219;1247;41140;-74
2022/07/16 08:31:14;;;;;;;7.60;2.20;;;;;27.90;97521.80;;;;111361;1247;41172;-74
2022/07/16 08:33:47;;;;;;;5.60;2.20;;;;;28.02;97524.60;;;;111095;1247;41147;-74
2022/07/16 08:36:16;;;;;;;5.50;2.10;;;;;28.00;97529.80;;;;111528;1247;41894;-74
2022/07/16 08:38:45;;;;;;;6.20;2.30;;;;;27.80;97533.00;;;;111565;1247;41149;-74
2022/07/16 08:41:15;;;;;;;5.30;2.10;;;;;27.70;97534.20;;;;111559;1247;42549;-71
2022/07/16 08:43:44;;;;;;;6.50;2.10;;;;;27.60;97537.00;;;;111553;1246;41926;-73
2022/07/16 08:46:15;;;;;;;5.80;2.30;;;;;27.50;97538.60;;;;111241;1247;41150;-72
2022/07/16 08:48:44;;;;;;;6.00;2.20;;;;;27.30;97545.00;;;;111264;1247;41998;-73
2022/07/16 08:51:14;;;;;;;3.90;1.80;;;;;27.08;97545.60;;;;111564;1247;41124;-73
2022/07/16 08:53:43;;;;;;;3.70;1.90;;;;;27.00;97545.00;;;;111524;1247;41255;-74
2022/07/16 08:56:12;;;;;;;5.30;2.20;;;;;26.82;97553.40;;;;111251;1247;41592;-74
2022/07/16 08:58:41;;;;;;;6.40;2.10;;;;;26.54;97550.60;;;;111532;1247;41140;-73
2022/07/16 09:01:10;;;;;;;6.90;2.10;;;;;26.20;97563.40;;;;111510;1247;41396;-72
2022/07/16 09:03:39;;;;;;;6.30;2.20;;;;;26.10;97563.40;;;;111523;1247;41136;-74
2022/07/16 09:06:08;;;;;;;7.00;2.00;;;;;26.00;97561.80;;;;111529;1246;41192;-73
2022/07/16 09:08:38;;;;;;;5.30;2.10;;;;;26.10;97560.00;;;;111143;1248;42088;-74
2022/07/16 09:11:22;;;;;;;5.00;1.90;;;;;26.40;97555.00;;;;111263;1247;41352;-73
2022/07/16 09:14:05;;;;;;;7.60;2.60;;;;;26.86;97543.20;;;;111265;1247;41123;-73
2022/07/16 09:16:38;;;;;;;4.90;2.00;;;;;27.30;97545.00;;;;111528;1246;42597;-73
2022/07/16 09:19:16;;;;;;;6.30;2.30;;;;;27.60;97548.80;;;;111274;1247;41609;-73
2022/07/16 09:22:06;;;;;;;4.10;1.70;;;;;27.32;97549.20;;;;111226;1247;41375;-74
2022/07/16 09:24:38;;;;;;;6.20;2.30;;;;;27.40;97549.80;;;;111291;1247;41266;-73
2022/07/16 09:27:14;;;;;;;5.00;2.20;;;;;27.54;97554.40;;;;111564;1246;41457;-73
2022/07/16 09:29:50;;;;;;;5.80;2.20;;;;;28.02;97538.20;;;;111547;1245;41252;-73
2022/07/16 09:32:39;;;;;;;7.50;2.10;;;;;28.30;97540.80;;;;111515;1247;41209;-73
2022/07/16 09:35:13;;;;;;;12.60;2.20;;;;;28.40;97541.20;;;;111377;1246;42086;-75
2022/07/16 09:37:52;;;;;;;8.20;2.20;;;;;28.48;97539.60;;;;111497;1247;41251;-74
2022/07/16 09:40:32;;;;;;;4.00;1.80;;;;;28.72;97530.40;;;;111250;1247;41160;-72
2022/07/16 09:43:03;;;;;;;3.20;1.30;;;;;28.68;97526.20;;;;111321;1247;41757;-72
2022/07/16 09:45:32;;;;;;;5.00;2.10;;;;;28.36;97532.80;;;;111275;1247;41181;-73
2022/07/16 09:48:01;;;;;;;3.90;1.70;;;;;27.80;97536.20;;;;111372;1247;41595;-73
2022/07/16 09:50:36;;;;;;;6.50;2.20;;;;;27.80;97530.00;;;;111107;1247;41132;-73
2022/07/16 09:53:16;;;;;;;6.30;1.80;;;;;27.90;97532.20;;;;111147;1248;41144;-73
2022/07/16 09:56:05;;;;;;;3.40;1.70;;;;;28.00;97522.40;;;;111242;1247;41145;-74
2022/07/16 09:58:35;;;;;;;5.70;2.30;;;;;28.58;97521.80;;;;111463;1245;41850;-73
2022/07/16 10:01:06;;;;;;;5.70;1.80;;;;;28.70;97517.20;;;;111169;1249;41312;-72
2022/07/16 10:03:35;;;;;;;6.80;2.10;;;;;29.00;97511.00;;;;111312;1246;41000;-72
2022/07/16 10:06:04;;;;;;;3.90;1.90;;;;;29.30;97513.00;;;;111283;1245;41150;-72
2022/07/16 10:08:33;;;;;;;5.40;2.20;;;;;29.60;97504.00;;;;111192;1247;41277;-72
2022/07/16 10:11:04;;;;;;;7.30;2.00;;;;;29.76;97511.40;;;;111227;1247;41136;-71
2022/07/16 10:13:34;;;;;;;8.80;2.30;;;;;30.22;97507.80;;;;111175;1248;41941;-72
2022/07/16 10:16:03;;;;;;;5.70;1.90;;;;;30.04;97500.00;;;;111161;1247;41147;-71
2022/07/16 10:18:37;;;;;;;7.70;2.10;;;;;30.02;97502.00;;;;110945;1249;42092;-72
2022/07/16 10:21:10;;;;;;;2.60;1.40;;;;;29.36;97510.60;;;;111205;1248;42150;-72
2022/07/16 10:23:41;;;;;;;7.70;2.30;;;;;28.80;97506.00;;;;111318;1246;41375;-72
2022/07/16 10:26:19;;;;;;;8.70;2.00;;;;;28.40;97510.80;;;;111199;1247;42123;-72
2022/07/16 10:28:54;;;;;;;7.20;2.10;;;;;28.66;97509.00;;;;111209;1249;41977;-73
2022/07/16 10:32:30;;;;;;;4.90;2.00;;;;;28.34;97510.80;;;;111593;1245;41143;-72
2022/07/16 10:34:39;;;;;;;3.20;1.80;;;;;27.90;97513.40;;;;111152;1247;41194;-72
2022/07/16 10:37:12;;;;;;;6.30;2.20;;;;;27.60;97518.60;;;;111278;1247;41701;-72
2022/07/16 10:39:59;;;;;;;4.10;1.70;;;;;27.42;97521.60;;;;111205;1247;41154;-73
2022/07/16 10:42:28;;;;;;;6.50;2.30;;;;;27.34;97523.00;;;;111478;1247;41155;-72
2022/07/16 10:44:57;;;;;;;7.30;1.80;;;;;27.26;97524.60;;;;111424;1247;41251;-72
2022/07/16 10:47:47;;;;;;;6.30;1.90;;;;;27.70;97527.40;;;;111401;1247;42320;-72
2022/07/16 10:50:19;;;;;;;6.30;1.80;;;;;27.82;97518.40;;;;111109;1248;41152;-72
2022/07/16 10:52:51;;;;;;;4.70;1.90;;;;;27.90;97518.00;;;;111458;1247;41152;-71
2022/07/16 10:55:34;;;;;;;7.70;2.00;;;;;27.96;97510.40;;;;111435;1247;41128;-72
2022/07/16 10:58:03;;;;;;;4.80;1.80;;;;;28.48;97509.40;;;;111148;1250;41155;-72
2022/07/16 11:00:32;;;;;;;5.50;2.10;;;;;28.36;97516.80;;;;111201;1248;40892;-72
2022/07/16 11:03:04;;;;;;;6.00;1.80;;;;;28.80;97513.40;;;;111460;1247;41135;-72
2022/07/16 11:05:44;;;;;;;7.10;2.10;;;;;29.28;97513.00;;;;111131;1247;41146;-72
2022/07/16 11:08:13;;;;;;;7.30;1.50;;;;;29.54;97508.80;;;;111294;1247;41164;-72
2022/07/16 11:10:42;;;;;;;4.40;1.80;;;;;29.82;97503.40;;;;111204;1248;41956;-72
2022/07/16 11:13:16;;;;;;;4.70;1.80;;;;;30.40;97488.40;;;;111313;1246;41578;-72
2022/07/16 11:15:45;;;;;;;7.70;2.00;;;;;30.44;97484.40;;;;111044;1250;41632;-72
2022/07/16 11:18:17;;;;;;;5.60;1.90;;;;;31.28;97485.00;;;;111228;1247;42526;-73
2022/07/16 11:20:47;;;;;;;6.00;1.80;;;;;31.38;97484.00;;;;111343;1246;41156;-72
2022/07/16 11:23:18;;;;;;;5.00;1.90;;;;;31.40;97482.60;;;;111318;1247;41300;-73
2022/07/16 11:25:55;;;;;;;7.00;2.00;;;;;31.64;97475.40;;;;111063;1249;41146;-72
2022/07/16 11:28:24;;;;;;;5.00;1.80;;;;;31.32;97480.60;;;;111273;1246;41365;-71
2022/07/16 11:31:01;;;;;;;5.10;1.90;;;;;31.40;97467.20;;;;111047;1248;41955;-73
2022/07/16 11:33:53;;;;;;;5.20;1.90;;;;;31.72;97468.00;;;;111187;1247;41153;-73
2022/07/16 11:36:29;;;;;;;2.60;1.50;;;;;31.96;97470.80;;;;111248;1248;42360;-72
2022/07/16 11:39:06;;;;;;;4.60;2.00;;;;;32.00;97466.80;;;;111228;1248;41186;-72
2022/07/16 11:41:37;;;;;;;6.40;1.90;;;;;31.62;97465.40;;;;111239;1248;41260;-72
2022/07/16 11:44:16;;;;;;;6.40;1.70;;;;;31.66;97465.40;;;;111413;1247;41146;-73
2022/07/16 11:46:55;;;;;;;18.10;2.10;;;;;31.26;97470.80;;;;111404;1247;41840;-72
2022/07/16 11:49:38;;;;;;;5.10;2.10;;;;;31.16;97465.00;;;;111314;1247;41151;-72
2022/07/16 11:52:21;;;;;;;6.50;2.10;;;;;31.48;97462.40;;;;111549;1247;41174;-72
2022/07/16 11:54:52;;;;;;;9.90;2.20;;;;;31.66;97461.40;;;;111341;1247;42112;-72
2022/07/16 11:57:21;;;;;;;5.90;2.10;;;;;32.02;97459.40;;;;111133;1248;41251;-72
2022/07/16 11:59:55;;;;;;;4.70;1.90;;;;;32.04;97460.00;;;;111194;1248;41153;-72
2022/07/16 12:02:27;;;;;;;6.40;2.00;;;;;32.32;97457.60;;;;111242;1248;41151;-73
2022/07/16 12:04:58;;;;;;;5.60;1.80;;;;;32.38;97456.40;;;;111185;1248;41143;-72
2022/07/16 12:07:28;;;;;;;4.40;1.80;;;;;32.00;97456.40;;;;110978;1250;41208;-72
2022/07/16 12:09:58;;;;;;;;;;;;;32.00;97456.20;;;;111459;1247;41377;-72
2022/07/16 12:12:37;;;;;;;6.50;2.00;;;;;32.78;97453.00;;;;111257;1248;41874;-72
2022/07/16 12:15:12;;;;;;;4.90;1.80;;;;;32.12;97459.40;;;;111387;1245;41129;-73
2022/07/16 12:17:45;;;;;;;4.60;1.90;;;;;32.22;97459.00;;;;111531;1247;41829;-72
2022/07/16 12:20:22;;;;;;;5.10;2.00;;;;;32.20;97461.00;;;;111325;1247;42035;-72
2022/07/16 12:23:02;;;;;;;3.60;1.80;;;;;31.40;97458.60;;;;111541;1247;41142;-73
2022/07/16 12:25:43;;;;;;;3.30;1.60;;;;;30.92;97462.00;;;;111362;1247;41247;-73
2022/07/16 12:28:18;;;;;;;5.10;2.00;;;;;30.60;97463.80;;;;111341;1247;42447;-70
2022/07/16 12:30:58;;;;;;;7.70;2.20;;;;;30.30;97469.80;;;;111255;1247;40903;-72
2022/07/16 12:33:29;;;;;;;5.30;2.20;;;;;29.92;97473.20;;;;111213;1248;41179;-72
2022/07/16 12:36:03;;;;;;;5.20;2.20;;;;;29.32;97478.00;;;;111422;1246;41934;-72